LDSP/SPU METAR and TAF weather

Enter ICAO airport designator
Station Type Date Time Source
LDSP METAR 2021/03/01 09:00 UTC NOAA

LDSP 010900Z VRB02KT CAVOK 13/M01 Q1028 NOSIG


Station Type Date Time Source
LDSP Decoded METAR 2021/03/01 09:00 UTC NOAA

Split / Resnik, Croatia (LDSP) 43-32N 016-18E 21M
Mar 01, 2021 - 04:00 AM EST / 2021.03.01 0900 UTC
Wind: Variable at 2 MPH (2 KT):0
Visibility: greater than 7 mile(s):0
Temperature: 55 F (13 C)
Dew Point: 30 F (-1 C)
Relative Humidity: 37%
Pressure (altimeter): 30.36 in. Hg (1028 hPa)
ob: LDSP 010900Z VRB02KT CAVOK 13/M01 Q1028 NOSIG
cycle: 9

Station Type Date Time Source
LDSP TAF 2021/03/01 06:27 UTC NOAA

TAF LDSP 010525Z 0106/0206 34005KT CAVOK TX17/0113Z TN05/0205Z
BECMG 0110/0112 23008KT
BECMG 0115/0117 34007KT
TEMPO 0118/0201 05010KT

Example: see airport list